Time;durP1;ratioP1;P1;durP2;ratioP2;P2;SDS_P1;SDS_P2;PMS_P1;PMS_P2;Temp;Humidity;BMP_temperature;BMP_pressure;BME280_temperature;BME280_humidity;BME280_pressure;Samples;Min_cycle;Max_cycle;Signal;HPM_P1;HPM_P2
2020/12/15 00:01:30;;;;;;;45.90;22.10;;;27.00;80.10;;;;;;5023572;28;20375;-88
2020/12/15 00:03:57;;;;;;;63.20;35.03;;;27.00;78.70;;;;;;5029307;28;20081;-89
2020/12/15 00:06:23;;;;;;;58.53;27.70;;;26.90;78.90;;;;;;5024078;28;20025;-88
2020/12/15 00:08:57;;;;;;;59.08;28.23;;;26.90;79.10;;;;;;5030249;28;20334;-90
2020/12/15 00:11:24;;;;;;;23.52;12.25;;;26.70;79.30;;;;;;5033121;28;20030;-91
2020/12/15 00:13:53;;;;;;;28.55;14.65;;;26.70;79.40;;;;;;5028921;28;20294;-90
2020/12/15 00:16:22;;;;;;;20.00;14.03;;;26.60;79.00;;;;;;5030432;28;20026;-91
2020/12/15 00:18:51;;;;;;;16.35;8.00;;;26.60;79.60;;;;;;5030794;28;20033;-91
2020/12/15 00:21:23;;;;;;;15.50;3.58;;;26.50;78.60;;;;;;5024289;28;20079;-90
2020/12/15 00:23:51;;;;;;;7.68;4.80;;;26.50;78.50;;;;;;5028630;28;20307;-92
2020/12/15 00:26:19;;;;;;;3.08;1.67;;;26.50;78.80;;;;;;5028593;28;20030;-90
2020/12/15 00:28:48;;;;;;;6.80;2.00;;;26.40;78.60;;;;;;5026600;28;20024;-92
2020/12/15 00:31:15;;;;;;;6.47;2.53;;;26.30;78.70;;;;;;5022014;28;20029;-91
2020/12/15 00:33:44;;;;;;;19.98;7.95;;;26.30;79.30;;;;;;5028146;28;20056;-89
2020/12/15 00:36:16;;;;;;;27.70;15.15;;;26.20;79.60;;;;;;5028594;28;20049;-90
2020/12/15 00:38:50;;;;;;;29.13;15.00;;;26.20;79.50;;;;;;5028161;28;20085;-90
2020/12/15 00:41:17;;;;;;;16.42;10.48;;;26.20;79.00;;;;;;5029471;28;20318;-91
2020/12/15 00:43:43;;;;;;;14.55;8.80;;;26.10;79.20;;;;;;5042144;28;20081;-89
2020/12/15 00:46:14;;;;;;;19.13;9.93;;;26.10;79.40;;;;;;5028273;28;20089;-90
2020/12/15 00:48:41;;;;;;;13.30;5.32;;;26.10;79.30;;;;;;5023324;28;20026;-89
2020/12/15 00:51:15;;;;;;;13.65;3.33;;;26.10;79.40;;;;;;5021211;28;20022;-90
2020/12/15 00:53:42;;;;;;;7.75;2.83;;;26.00;79.20;;;;;;5029165;28;20018;-87
2020/12/15 00:56:09;;;;;;;10.70;5.32;;;26.00;79.30;;;;;;5031982;28;20303;-90
2020/12/15 00:58:36;;;;;;;18.83;8.30;;;26.00;79.20;;;;;;5029785;28;20018;-87
2020/12/15 01:01:07;;;;;;;9.73;5.35;;;25.90;79.60;;;;;;5030777;28;20049;-89
2020/12/15 01:03:44;;;;;;;6.97;3.80;;;25.90;79.40;;;;;;5030432;28;20018;-90
2020/12/15 01:06:20;;;;;;;4.60;2.85;;;25.80;79.50;;;;;;5047030;28;20049;-91
2020/12/15 01:08:46;;;;;;;4.43;2.38;;;25.80;79.60;;;;;;5028637;28;20025;-89
2020/12/15 01:11:13;;;;;;;10.68;3.38;;;25.80;80.20;;;;;;5021555;28;20026;-89
2020/12/15 01:13:40;;;;;;;4.60;2.30;;;25.80;80.50;;;;;;5027278;28;20017;-89
2020/12/15 01:16:07;;;;;;;7.28;2.67;;;25.80;80.10;;;;;;5020457;28;20022;-89
2020/12/15 01:18:57;;;;;;;5.40;1.90;;;25.80;80.40;;;;;;5032971;28;20081;-90
2020/12/15 01:38:34;;;;;;;5.28;1.80;;;25.70;79.40;;;;;;1378139;23;20637;-88
2020/12/15 01:41:00;;;;;;;7.00;2.42;;;25.70;80.30;;;;;;4937172;28;20055;-93
2020/12/15 01:43:50;;;;;;;5.38;2.30;;;25.80;80.00;;;;;;4956974;28;20042;-90
2020/12/15 01:46:46;;;;;;;;;;;;;;;;;;;;;
2020/12/15 01:52:13;;;;;;;2.47;1.27;;;25.70;80.00;;;;;;5180833;23;20291;-92
2020/12/15 01:54:42;;;;;;;6.07;1.30;;;25.60;80.40;;;;;;4957001;28;20038;-90
2020/12/15 01:57:09;;;;;;;3.95;1.60;;;25.60;80.50;;;;;;4972290;28;20022;-92
2020/12/15 01:59:36;;;;;;;2.65;1.40;;;25.70;81.00;;;;;;4958737;28;20087;-91
2020/12/15 02:02:04;;;;;;;4.90;1.98;;;25.60;80.60;;;;;;4969327;28;20064;-90
2020/12/15 02:04:34;;;;;;;14.93;1.60;;;25.60;80.80;;;;;;4985712;28;20046;-91
2020/12/15 02:07:01;;;;;;;3.92;1.70;;;25.70;80.50;;;;;;4969553;28;20030;-92
2020/12/15 02:09:29;;;;;;;3.55;1.55;;;25.80;80.30;;;;;;4969156;28;20022;-92
2020/12/15 02:11:57;;;;;;;3.45;1.73;;;25.80;80.50;;;;;;4953509;28;20043;-91
2020/12/15 02:14:27;;;;;;;1.75;1.23;;;25.80;80.10;;;;;;4975970;28;20045;-93
2020/12/15 02:20:01;;;;;;;4.10;1.87;;;25.80;80.20;;;;;;5786349;23;20062;-92
2020/12/15 02:22:38;;;;;;;7.43;1.88;;;25.80;80.20;;;;;;4963108;29;20039;-91
2020/12/15 02:25:33;;;;;;;3.25;2.05;;;25.90;80.90;;;;;;4978030;29;20043;-93
2020/12/15 02:28:21;;;;;;;3.75;2.13;;;25.90;80.90;;;;;;4937006;29;20074;-91
2020/12/15 02:31:11;;;;;;;2.95;1.75;;;25.90;80.80;;;;;;4922678;29;20040;-92
2020/12/15 02:34:04;;;;;;;2.05;1.50;;;25.90;80.80;;;;;;5255759;23;20076;-88
2020/12/15 02:37:04;;;;;;;4.70;1.60;;;26.00;81.50;;;;;;5340670;23;20065;-90
2020/12/15 02:39:32;;;;;;;3.30;1.90;;;26.00;80.90;;;;;;4941179;29;20035;-92
2020/12/15 02:42:04;;;;;;;4.82;1.70;;;26.00;81.20;;;;;;4953972;29;20027;-93
2020/12/15 02:44:31;;;;;;;2.05;1.35;;;26.00;81.60;;;;;;4968082;29;20090;-91
2020/12/15 02:47:02;;;;;;;3.05;1.50;;;26.10;81.20;;;;;;4953482;29;20027;-93
2020/12/15 02:50:10;;;;;;;6.60;2.28;;;26.10;81.20;;;;;;4922022;29;20055;-92
2020/12/15 02:52:41;;;;;;;3.97;1.92;;;26.10;80.80;;;;;;4884908;29;20139;-94
2020/12/15 02:55:12;;;;;;;2.80;1.52;;;26.10;80.60;;;;;;4898758;29;20049;-92
2020/12/15 02:58:11;;;;;;;6.07;1.70;;;26.10;81.10;;;;;;4890465;29;20049;-92
2020/12/15 03:00:46;;;;;;;3.75;1.55;;;26.10;80.70;;;;;;4885680;29;20021;-95
2020/12/15 03:03:20;;;;;;;4.18;1.73;;;26.10;81.30;;;;;;4899744;29;20108;-93
2020/12/15 03:09:18;;;;;;;2.47;1.55;;;26.10;81.20;;;;;;4882567;29;20114;-94
2020/12/15 03:11:46;;;;;;;4.40;1.40;;;26.10;81.60;;;;;;4877446;29;20038;-94
2020/12/15 03:17:29;;;;;;;1.45;1.20;;;26.00;81.10;;;;;;4862507;29;20075;-95
2020/12/15 03:20:07;;;;;;;3.35;1.52;;;26.00;81.30;;;;;;4847236;29;20041;-92
2020/12/15 03:22:56;;;;;;;2.55;1.33;;;26.00;81.30;;;;;;4847939;29;20054;-92
2020/12/15 03:25:37;;;;;;;4.07;1.30;;;26.00;80.90;;;;;;4826258;29;20105;-93
2020/12/15 03:28:24;;;;;;;2.28;1.35;;;26.00;80.90;;;;;;4832290;29;20045;-92
2020/12/15 03:30:56;;;;;;;2.15;1.13;;;26.00;80.60;;;;;;4825895;29;20041;-94
2020/12/15 03:33:23;;;;;;;5.35;1.30;;;26.00;80.20;;;;;;4826737;29;20062;-93
2020/12/15 03:35:51;;;;;;;2.85;1.27;;;26.00;79.80;;;;;;4824798;29;20032;-93
2020/12/15 03:41:36;;;;;;;2.85;1.20;;;26.00;79.90;;;;;;5768273;23;20070;-93
2020/12/15 03:44:57;;;;;;;2.88;1.25;;;26.10;79.30;;;;;;4972717;29;20035;-93
2020/12/15 03:47:26;;;;;;;5.00;1.50;;;26.10;79.40;;;;;;4850618;29;20052;-93
2020/12/15 03:56:27;;;;;;;6.63;4.30;;;26.10;78.60;;;;;;4961704;29;20085;-92
2020/12/15 03:58:57;;;;;;;9.50;7.28;;;26.10;78.60;;;;;;4974739;29;20041;-93
2020/12/15 04:01:24;;;;;;;3.05;2.00;;;26.00;78.60;;;;;;4955043;29;20019;-91
2020/12/15 04:03:50;;;;;;;4.03;1.85;;;26.00;78.80;;;;;;4955108;29;20042;-91
2020/12/15 04:06:17;;;;;;;6.20;2.00;;;26.00;78.60;;;;;;4955040;29;20152;-90
2020/12/15 04:08:44;;;;;;;4.60;2.38;;;26.10;78.80;;;;;;4954776;29;20046;-91
2020/12/15 04:11:11;;;;;;;12.52;6.38;;;26.10;78.60;;;;;;4953535;29;20058;-92
2020/12/15 04:13:37;;;;;;;4.97;2.83;;;26.10;78.50;;;;;;4957540;29;20039;-92
2020/12/15 04:16:04;;;;;;;5.10;1.80;;;26.10;78.90;;;;;;4955117;29;20094;-91
2020/12/15 04:18:32;;;;;;;4.28;1.70;;;26.10;78.60;;;;;;4955331;29;20046;-91
2020/12/15 04:21:03;;;;;;;2.42;1.52;;;26.00;78.70;;;;;;4957233;29;20031;-92
2020/12/15 04:23:30;;;;;;;2.30;1.50;;;26.00;78.90;;;;;;4956811;29;20023;-91
2020/12/15 04:26:01;;;;;;;2.75;1.50;;;26.00;79.20;;;;;;4941226;29;20075;-90
2020/12/15 04:28:29;;;;;;;4.70;1.67;;;26.00;79.50;;;;;;4958946;29;20054;-92
2020/12/15 04:30:58;;;;;;;4.22;1.40;;;25.90;80.20;;;;;;4972056;29;20039;-92
2020/12/15 04:33:26;;;;;;;2.95;1.52;;;25.90;80.30;;;;;;4956578;29;20066;-90
2020/12/15 04:35:57;;;;;;;6.20;1.38;;;25.90;81.40;;;;;;4960241;29;20019;-91
2020/12/15 04:38:45;;;;;;;3.03;1.50;;;25.80;81.50;;;;;;4958639;29;20086;-94
2020/12/15 04:44:18;;;;;;;3.35;1.58;;;25.70;81.60;;;;;;5073074;23;20058;-91
2020/12/15 04:47:07;;;;;;;3.63;1.35;;;25.60;82.60;;;;;;4991739;28;20026;-92
2020/12/15 04:49:48;;;;;;;7.20;1.85;;;25.70;81.90;;;;;;4989222;28;20037;-91
2020/12/15 04:52:26;;;;;;;4.05;1.88;;;25.70;82.10;;;;;;4990450;28;20072;-91
2020/12/15 04:54:53;;;;;;;2.30;1.40;;;25.70;82.10;;;;;;5009041;28;20018;-92
2020/12/15 04:57:22;;;;;;;5.78;1.60;;;25.70;81.30;;;;;;4976115;28;20026;-91
2020/12/15 04:59:51;;;;;;;2.28;1.40;;;25.60;81.60;;;;;;4992516;28;20085;-91
2020/12/15 05:02:19;;;;;;;6.40;1.38;;;25.60;81.20;;;;;;4992339;28;20080;-92
2020/12/15 05:04:51;;;;;;;5.07;1.40;;;25.60;80.70;;;;;;5010057;28;20030;-92
2020/12/15 05:07:43;;;;;;;5.85;1.42;;;25.70;82.50;;;;;;4976953;28;20047;-90
2020/12/15 05:10:17;;;;;;;2.05;1.35;;;25.70;80.80;;;;;;4995999;28;20390;-89
2020/12/15 05:12:47;;;;;;;2.88;1.67;;;25.60;81.60;;;;;;4991668;28;20101;-89
2020/12/15 05:15:18;;;;;;;6.00;1.25;;;25.60;81.00;;;;;;4980936;28;20088;-90
2020/12/15 05:17:46;;;;;;;4.15;1.58;;;25.70;80.90;;;;;;4993560;28;20214;-90
2020/12/15 05:20:18;;;;;;;2.45;1.15;;;25.60;81.50;;;;;;4989961;28;20026;-91
2020/12/15 05:22:48;;;;;;;3.50;1.75;;;25.70;81.30;;;;;;5008915;28;20027;-91
2020/12/15 05:25:25;;;;;;;2.72;1.52;;;25.70;81.20;;;;;;4991451;28;20319;-90
2020/12/15 05:27:56;;;;;;;2.83;1.30;;;25.60;81.00;;;;;;5007491;28;20023;-89
2020/12/15 05:30:23;;;;;;;1.67;1.00;;;25.70;81.70;;;;;;4990641;28;20054;-90
2020/12/15 05:33:08;;;;;;;4.25;1.40;;;25.60;81.70;;;;;;4990721;28;20207;-91
2020/12/15 05:35:38;;;;;;;2.33;1.38;;;25.70;81.90;;;;;;4976254;28;20029;-91
2020/12/15 05:38:06;;;;;;;1.65;1.30;;;25.70;81.20;;;;;;4994449;28;20050;-92
2020/12/15 05:40:33;;;;;;;1.70;1.30;;;25.70;81.20;;;;;;4991585;28;20023;-91
2020/12/15 05:43:03;;;;;;;3.47;1.65;;;25.70;81.20;;;;;;4974913;28;20051;-91
2020/12/15 05:45:33;;;;;;;1.85;1.30;;;25.70;81.70;;;;;;4973210;28;20037;-90
2020/12/15 05:48:09;;;;;;;3.17;1.48;;;25.70;81.70;;;;;;4973013;28;20095;-92
2020/12/15 05:50:40;;;;;;;4.65;1.20;;;25.70;80.70;;;;;;4970721;28;20041;-91
2020/12/15 05:53:11;;;;;;;2.95;1.45;;;25.70;81.70;;;;;;4970305;28;20338;-89
2020/12/15 05:55:40;;;;;;;1.77;1.30;;;25.60;81.90;;;;;;4975520;28;20019;-92
2020/12/15 05:58:07;;;;;;;5.90;1.70;;;25.60;80.00;;;;;;4972858;28;20026;-92
2020/12/15 06:00:34;;;;;;;2.22;1.25;;;25.60;80.40;;;;;;4971642;28;20042;-92
2020/12/15 06:03:07;;;;;;;2.22;1.20;;;25.60;80.10;;;;;;4975828;28;20113;-93
2020/12/15 06:05:36;;;;;;;3.35;1.40;;;25.60;79.90;;;;;;4971090;28;20019;-90
2020/12/15 06:08:04;;;;;;;2.35;1.48;;;25.70;79.70;;;;;;4970215;28;20046;-90
2020/12/15 06:10:35;;;;;;;3.05;1.60;;;25.70;80.30;;;;;;4969982;28;20029;-92
2020/12/15 06:13:03;;;;;;;2.67;1.92;;;25.70;80.20;;;;;;4970555;28;20030;-91
2020/12/15 06:15:31;;;;;;;2.17;1.23;;;25.80;80.00;;;;;;4988918;28;20026;-91
2020/12/15 06:18:04;;;;;;;2.55;1.40;;;25.70;80.70;;;;;;4970188;28;20027;-91
2020/12/15 06:20:35;;;;;;;3.88;1.83;;;25.70;80.30;;;;;;4988643;28;20038;-92
2020/12/15 06:23:03;;;;;;;3.53;1.67;;;25.70;80.40;;;;;;4969956;28;20207;-90
2020/12/15 06:25:32;;;;;;;2.70;1.52;;;25.70;80.40;;;;;;4969590;28;20227;-90
2020/12/15 06:28:10;;;;;;;1.67;1.25;;;25.70;80.50;;;;;;4969435;28;20070;-89
2020/12/15 06:30:43;;;;;;;2.15;1.27;;;25.70;80.70;;;;;;4970834;28;20015;-89
2020/12/15 06:33:12;;;;;;;3.15;1.10;;;25.70;81.40;;;;;;4970233;28;20034;-89
2020/12/15 06:35:40;;;;;;;1.58;1.20;;;25.60;81.80;;;;;;4970681;28;20025;-89
2020/12/15 06:38:17;;;;;;;1.88;1.13;;;25.60;82.60;;;;;;4969703;28;20330;-91
2020/12/15 06:40:45;;;;;;;1.48;1.00;;;25.50;82.40;;;;;;4969475;28;20036;-90
2020/12/15 06:43:18;;;;;;;1.75;1.13;;;25.50;82.80;;;;;;4968710;28;20359;-90
2020/12/15 06:45:45;;;;;;;1.42;1.17;;;25.40;83.60;;;;;;4968725;28;20038;-91
2020/12/15 06:48:14;;;;;;;2.45;1.20;;;25.40;83.40;;;;;;4970795;28;20047;-91
2020/12/15 06:50:42;;;;;;;2.08;1.30;;;25.40;83.10;;;;;;4988875;28;20023;-90
2020/12/15 06:53:10;;;;;;;2.95;1.13;;;25.40;83.10;;;;;;4971369;28;20415;-90
2020/12/15 06:55:37;;;;;;;1.65;1.23;;;25.30;83.40;;;;;;4971242;28;20030;-91
2020/12/15 06:58:04;;;;;;;3.08;1.30;;;25.30;84.00;;;;;;4970769;28;20026;-92
2020/12/15 07:00:39;;;;;;;2.28;1.33;;;25.30;84.20;;;;;;4970576;28;20019;-91
2020/12/15 07:03:07;;;;;;;2.45;1.15;;;25.30;84.30;;;;;;4986374;28;20292;-93
2020/12/15 07:05:36;;;;;;;2.70;1.10;;;25.20;84.70;;;;;;4969797;28;20026;-93
2020/12/15 07:08:14;;;;;;;4.25;1.60;;;25.20;85.20;;;;;;4972325;28;20094;-92
2020/12/15 07:10:44;;;;;;;2.33;1.33;;;25.10;85.40;;;;;;4970349;28;20022;-92
2020/12/15 07:13:14;;;;;;;3.22;1.55;;;25.10;86.00;;;;;;4968715;28;20018;-92
2020/12/15 07:15:40;;;;;;;1.63;1.10;;;25.10;86.50;;;;;;4969609;28;20029;-92
2020/12/15 07:18:07;;;;;;;2.75;1.60;;;25.00;86.70;;;;;;4968971;28;20087;-93
2020/12/15 07:20:34;;;;;;;4.38;1.70;;;25.00;86.50;;;;;;4969321;28;20030;-92
2020/12/15 07:23:00;;;;;;;2.88;1.50;;;24.90;86.90;;;;;;4969236;28;20030;-93
2020/12/15 07:25:31;;;;;;;3.17;1.70;;;24.90;87.10;;;;;;4984871;28;20022;-91
2020/12/15 07:27:59;;;;;;;5.40;1.52;;;24.90;87.20;;;;;;4967213;28;20018;-90
2020/12/15 07:30:27;;;;;;;3.28;1.60;;;24.90;87.40;;;;;;4984673;28;20282;-91
2020/12/15 07:32:54;;;;;;;2.13;1.40;;;24.80;88.10;;;;;;4967531;28;20029;-90
2020/12/15 07:35:23;;;;;;;4.80;1.50;;;24.70;88.50;;;;;;4967495;28;20023;-90
2020/12/15 07:37:58;;;;;;;2.67;1.70;;;24.70;88.60;;;;;;4967711;28;20315;-90
2020/12/15 07:40:30;;;;;;;3.63;1.70;;;24.70;89.00;;;;;;4967947;28;20027;-92
2020/12/15 07:43:01;;;;;;;4.68;1.20;;;24.70;88.70;;;;;;4967546;28;20308;-91
2020/12/15 07:45:30;;;;;;;5.15;2.05;;;24.60;88.90;;;;;;4968197;28;20049;-91
2020/12/15 07:47:57;;;;;;;2.03;1.17;;;24.60;89.00;;;;;;4972444;28;20254;-90
2020/12/15 07:50:29;;;;;;;2.03;1.52;;;24.60;88.60;;;;;;4971113;28;20045;-91
2020/12/15 07:53:06;;;;;;;3.78;1.38;;;24.60;88.40;;;;;;4955566;28;20023;-90
2020/12/15 07:55:32;;;;;;;1.17;1.08;;;24.60;88.30;;;;;;4971122;28;20023;-90
2020/12/15 07:58:00;;;;;;;4.28;1.48;;;24.60;88.50;;;;;;4970225;28;20331;-91
2020/12/15 08:00:27;;;;;;;1.73;1.10;;;24.50;88.80;;;;;;4971395;28;20042;-89
2020/12/15 08:03:01;;;;;;;2.35;1.30;;;24.50;88.60;;;;;;4970405;28;20070;-91
2020/12/15 08:05:29;;;;;;;1.80;1.05;;;24.50;88.30;;;;;;4955396;28;20029;-90
2020/12/15 08:07:58;;;;;;;2.40;1.17;;;24.50;88.20;;;;;;4970312;28;20256;-91
2020/12/15 08:10:31;;;;;;;1.55;1.20;;;24.50;87.90;;;;;;4970706;28;20046;-91
2020/12/15 08:13:04;;;;;;;2.80;1.00;;;24.60;87.10;;;;;;4970918;28;20035;-90
2020/12/15 08:15:36;;;;;;;1.48;1.05;;;24.60;86.80;;;;;;4970502;28;20019;-90
2020/12/15 08:18:03;;;;;;;;;;;24.80;86.00;;;;;;4970179;28;20208;-90
2020/12/15 08:20:31;;;;;;;3.10;1.45;;;24.80;85.10;;;;;;4970120;28;19906;-91
2020/12/15 08:23:14;;;;;;;1.88;1.15;;;24.80;84.90;;;;;;4970554;28;20037;-92
2020/12/15 08:25:43;;;;;;;2.30;1.20;;;24.90;84.60;;;;;;4970123;28;20026;-91
2020/12/15 08:28:25;;;;;;;1.75;1.13;;;24.80;84.70;;;;;;4970481;28;20061;-90
2020/12/15 08:30:56;;;;;;;3.47;1.27;;;24.90;84.60;;;;;;4984395;28;20040;-91
2020/12/15 08:33:30;;;;;;;2.35;1.10;;;24.90;84.60;;;;;;4970132;28;20034;-90
2020/12/15 08:35:59;;;;;;;2.15;1.13;;;24.90;84.90;;;;;;4969335;28;20022;-90
2020/12/15 08:38:27;;;;;;;2.70;1.30;;;24.90;84.60;;;;;;4970079;28;20026;-89
2020/12/15 08:40:59;;;;;;;2.75;1.10;;;25.00;84.90;;;;;;4969826;28;20194;-88
2020/12/15 08:43:25;;;;;;;5.43;1.42;;;25.00;84.80;;;;;;4987329;28;20062;-91
2020/12/15 08:45:52;;;;;;;2.00;1.30;;;25.10;84.50;;;;;;4970166;28;20030;-91
2020/12/15 08:48:21;;;;;;;2.00;1.30;;;25.10;84.40;;;;;;4969523;28;20030;-92
2020/12/15 08:50:48;;;;;;;1.52;1.10;;;25.10;84.80;;;;;;4970284;28;20022;-91
2020/12/15 08:53:16;;;;;;;1.85;1.20;;;25.10;84.60;;;;;;4971047;28;20312;-90
2020/12/15 08:55:44;;;;;;;1.38;1.10;;;25.10;84.10;;;;;;4969237;28;20041;-91
2020/12/15 08:58:12;;;;;;;2.47;1.25;;;25.10;84.50;;;;;;4970974;28;20255;-91
2020/12/15 09:00:43;;;;;;;2.58;1.13;;;25.10;84.90;;;;;;4972721;28;20057;-90
2020/12/15 09:03:18;;;;;;;3.08;1.60;;;25.10;84.80;;;;;;4969387;28;20143;-90
2020/12/15 09:06:03;;;;;;;1.60;1.10;;;25.20;84.80;;;;;;4970049;28;20025;-90
2020/12/15 09:08:29;;;;;;;3.25;1.23;;;25.10;85.10;;;;;;4969668;28;20049;-90
2020/12/15 09:10:57;;;;;;;1.90;1.30;;;25.20;85.20;;;;;;4970450;28;20307;-90
2020/12/15 09:13:24;;;;;;;2.92;1.20;;;25.20;86.00;;;;;;4970596;28;20077;-91
2020/12/15 09:15:56;;;;;;;4.90;1.42;;;25.20;85.60;;;;;;4969159;28;20271;-91
2020/12/15 09:18:37;;;;;;;1.95;1.40;;;25.20;85.60;;;;;;4969790;28;20027;-91
2020/12/15 09:21:15;;;;;;;4.50;1.48;;;25.20;84.90;;;;;;4953295;28;20026;-91
2020/12/15 09:23:52;;;;;;;3.25;1.30;;;25.20;85.70;;;;;;4970273;28;20109;-90
2020/12/15 09:26:20;;;;;;;1.25;1.15;;;25.10;86.20;;;;;;4965026;28;20215;-88
2020/12/15 09:28:47;;;;;;;2.00;1.30;;;25.00;86.70;;;;;;4968764;28;20027;-91
2020/12/15 09:31:15;;;;;;;2.42;1.30;;;24.90;87.00;;;;;;4969024;28;20026;-90
2020/12/15 09:33:42;;;;;;;6.47;1.50;;;24.80;87.60;;;;;;4968677;28;20027;-92
2020/12/15 09:36:12;;;;;;;4.35;1.48;;;24.80;88.10;;;;;;4968924;28;20018;-91
2020/12/15 09:38:46;;;;;;;2.97;2.10;;;24.70;88.00;;;;;;4969016;28;20049;-93
2020/12/15 09:41:15;;;;;;;1.95;1.63;;;24.80;88.30;;;;;;4969046;28;20033;-92
2020/12/15 09:43:43;;;;;;;2.78;1.70;;;24.70;88.40;;;;;;4986121;28;20220;-91
2020/12/15 09:46:10;;;;;;;4.05;1.83;;;24.70;88.70;;;;;;4968505;28;20089;-92
2020/12/15 09:48:37;;;;;;;3.83;1.52;;;24.70;88.60;;;;;;4969049;28;20267;-90
2020/12/15 09:51:03;;;;;;;1.48;1.10;;;24.70;88.50;;;;;;4968289;28;20050;-92
2020/12/15 09:53:31;;;;;;;1.10;1.00;;;24.70;88.50;;;;;;4968699;28;20026;-92
2020/12/15 09:55:59;;;;;;;2.50;1.15;;;24.70;88.40;;;;;;4986003;28;20019;-93
2020/12/15 09:58:28;;;;;;;1.60;1.20;;;24.70;88.60;;;;;;4953059;28;20027;-89
2020/12/15 10:00:55;;;;;;;3.17;1.30;;;24.70;88.70;;;;;;4968450;28;20018;-91
2020/12/15 10:03:23;;;;;;;8.32;1.20;;;24.70;88.60;;;;;;4968511;28;20081;-89
2020/12/15 10:05:53;;;;;;;1.90;1.40;;;24.60;88.30;;;;;;4985410;28;20026;-91
2020/12/15 10:08:30;;;;;;;2.40;1.30;;;24.60;88.50;;;;;;4968627;28;20037;-92
2020/12/15 10:11:00;;;;;;;4.13;1.50;;;24.60;88.10;;;;;;4987831;28;20050;-92
2020/12/15 10:13:30;;;;;;;2.55;1.27;;;24.60;88.20;;;;;;4968773;28;20097;-90
2020/12/15 10:16:00;;;;;;;1.95;1.50;;;24.60;88.30;;;;;;4967880;28;20015;-90
2020/12/15 10:18:26;;;;;;;4.82;1.48;;;24.60;88.40;;;;;;4968391;28;20061;-91
2020/12/15 10:20:53;;;;;;;2.63;1.30;;;24.60;88.40;;;;;;4969141;28;20022;-91
2020/12/15 10:23:20;;;;;;;2.28;1.30;;;24.60;88.10;;;;;;4969583;28;20027;-92
2020/12/15 10:25:47;;;;;;;2.33;1.20;;;24.60;87.90;;;;;;4969712;28;20018;-91
2020/12/15 10:28:15;;;;;;;2.30;1.17;;;24.70;87.80;;;;;;4969210;28;20057;-92
2020/12/15 10:30:41;;;;;;;2.75;1.38;;;24.60;88.50;;;;;;4968919;28;20023;-91
2020/12/15 10:33:09;;;;;;;3.33;1.38;;;24.60;88.20;;;;;;4968295;28;20023;-92
2020/12/15 10:35:38;;;;;;;4.28;1.38;;;24.50;88.40;;;;;;4986206;28;20330;-92
2020/12/15 10:38:06;;;;;;;2.00;1.30;;;24.50;88.60;;;;;;4966191;28;20074;-92
2020/12/15 10:40:39;;;;;;;2.38;1.08;;;24.50;88.70;;;;;;4953097;28;20035;-93
2020/12/15 10:43:07;;;;;;;6.30;1.17;;;24.50;88.10;;;;;;4903450;28;20342;-92
2020/12/15 10:45:40;;;;;;;2.17;1.50;;;24.50;87.80;;;;;;4967983;28;20335;-92
2020/12/15 10:48:06;;;;;;;6.57;1.33;;;24.60;87.70;;;;;;4967490;28;20089;-93
2020/12/15 10:50:33;;;;;;;1.30;1.00;;;24.60;87.30;;;;;;4963500;28;20026;-90
2020/12/15 10:53:02;;;;;;;2.42;1.05;;;24.60;87.30;;;;;;4967796;28;20023;-92
2020/12/15 10:55:29;;;;;;;1.20;0.80;;;24.60;87.30;;;;;;4967997;28;20130;-90
2020/12/15 10:58:00;;;;;;;2.30;0.82;;;24.60;87.20;;;;;;4952399;28;20027;-93
2020/12/15 11:00:27;;;;;;;1.50;0.80;;;24.60;87.00;;;;;;4968483;28;20023;-91
2020/12/15 11:02:54;;;;;;;2.80;1.10;;;24.60;87.20;;;;;;4968124;28;20192;-91
2020/12/15 11:05:31;;;;;;;3.58;1.85;;;24.60;86.80;;;;;;4967958;28;20206;-91
2020/12/15 11:07:58;;;;;;;2.13;1.23;;;24.60;87.00;;;;;;4967950;28;20258;-89
2020/12/15 11:10:25;;;;;;;1.77;0.93;;;24.60;86.80;;;;;;4967675;28;20050;-90
2020/12/15 11:12:51;;;;;;;7.43;1.10;;;24.60;86.70;;;;;;4968045;28;20054;-90
2020/12/15 11:15:18;;;;;;;1.55;0.80;;;24.70;86.40;;;;;;4972567;28;20090;-87
2020/12/15 11:17:45;;;;;;;2.13;0.90;;;24.70;86.30;;;;;;4969099;28;20038;-89
2020/12/15 11:20:11;;;;;;;1.67;1.00;;;24.80;86.50;;;;;;4969670;28;20053;-91
2020/12/15 11:22:40;;;;;;;4.25;0.95;;;24.80;86.10;;;;;;4989751;28;20027;-91
2020/12/15 11:25:09;;;;;;;2.30;0.93;;;24.80;86.90;;;;;;4989575;28;20050;-92
2020/12/15 11:27:36;;;;;;;4.00;1.40;;;24.90;86.30;;;;;;4971344;28;20033;-90
2020/12/15 11:30:03;;;;;;;2.78;1.63;;;24.90;86.30;;;;;;4988684;28;20061;-88
2020/12/15 11:32:30;;;;;;;7.68;3.40;;;24.90;85.80;;;;;;4989923;28;20291;-93
2020/12/15 11:34:56;;;;;;;8.55;2.85;;;25.00;85.60;;;;;;4971507;28;20065;-91
2020/12/15 11:37:23;;;;;;;6.95;2.58;;;25.10;85.90;;;;;;4972447;28;20023;-91
2020/12/15 11:39:50;;;;;;;3.45;2.03;;;25.10;85.40;;;;;;4972779;28;20019;-91
2020/12/15 11:42:16;;;;;;;6.38;1.60;;;25.20;85.70;;;;;;4988580;28;20094;-89
2020/12/15 11:44:43;;;;;;;7.53;3.00;;;25.30;85.10;;;;;;4988460;28;20335;-87
2020/12/15 11:47:10;;;;;;;18.85;8.45;;;25.40;84.50;;;;;;4989189;28;20077;-89
2020/12/15 11:49:37;;;;;;;10.30;4.65;;;25.60;84.00;;;;;;4988545;28;20018;-88
2020/12/15 11:52:03;;;;;;;3.45;1.80;;;25.70;83.20;;;;;;4988119;28;20054;-88
2020/12/15 11:54:30;;;;;;;3.40;1.00;;;25.80;83.50;;;;;;4988244;28;20022;-91
2020/12/15 11:56:57;;;;;;;2.92;0.90;;;25.80;83.40;;;;;;4971278;28;20069;-89
2020/12/15 11:59:23;;;;;;;2.78;0.90;;;25.80;83.40;;;;;;4970744;28;20094;-88
2020/12/15 12:01:50;;;;;;;5.45;1.52;;;25.90;83.50;;;;;;4988578;28;20035;-90
2020/12/15 12:04:17;;;;;;;11.82;3.40;;;25.90;83.70;;;;;;4987848;28;20251;-89
2020/12/15 12:06:43;;;;;;;12.82;6.47;;;26.00;82.90;;;;;;4971234;28;20030;-90
2020/12/15 12:09:10;;;;;;;13.95;5.25;;;26.10;82.30;;;;;;4988029;28;20015;-88
2020/12/15 12:11:36;;;;;;;23.95;6.90;;;26.20;82.20;;;;;;4988133;28;20027;-87
2020/12/15 12:14:03;;;;;;;10.90;4.13;;;26.20;82.10;;;;;;4970595;28;20025;-88
2020/12/15 12:16:30;;;;;;;13.90;4.05;;;26.30;80.90;;;;;;4972661;28;20010;-88
2020/12/15 12:18:59;;;;;;;11.82;2.70;;;26.50;81.30;;;;;;4989509;28;20022;-85
2020/12/15 12:21:32;;;;;;;7.97;3.13;;;26.50;80.50;;;;;;4989421;28;20027;-89
2020/12/15 12:23:58;;;;;;;3.55;1.70;;;26.70;81.00;;;;;;4960413;28;20046;-88
2020/12/15 12:26:28;;;;;;;5.15;1.20;;;26.80;80.90;;;;;;4992575;28;20125;-87
2020/12/15 12:28:57;;;;;;;8.10;1.17;;;27.00;80.60;;;;;;4976441;28;20089;-85
2020/12/15 12:31:29;;;;;;;3.63;1.00;;;27.10;80.00;;;;;;4991119;28;20086;-86
2020/12/15 12:34:04;;;;;;;7.22;1.23;;;27.10;80.00;;;;;;4978799;28;20023;-84
2020/12/15 12:36:35;;;;;;;3.80;1.02;;;27.20;79.20;;;;;;4996566;28;20025;-87
2020/12/15 12:39:12;;;;;;;1.92;0.70;;;27.40;79.10;;;;;;4981182;28;20022;-86
2020/12/15 12:41:38;;;;;;;4.88;1.20;;;27.60;78.80;;;;;;4979069;28;20022;-86
2020/12/15 12:44:10;;;;;;;4.32;1.02;;;27.70;78.10;;;;;;4973338;28;20074;-87
2020/12/15 12:46:37;;;;;;;6.03;1.00;;;27.80;77.60;;;;;;4971306;28;20151;-87
2020/12/15 12:49:03;;;;;;;1.83;0.80;;;27.90;77.80;;;;;;4974217;28;20034;-86
2020/12/15 12:51:30;;;;;;;5.65;0.88;;;28.00;77.30;;;;;;4972256;28;20026;-87
2020/12/15 12:53:57;;;;;;;2.58;1.63;;;28.10;76.90;;;;;;4992946;28;20307;-88
2020/12/15 12:56:26;;;;;;;8.88;1.10;;;28.20;77.50;;;;;;4991347;28;20022;-89
2020/12/15 12:58:53;;;;;;;38.70;3.28;;;28.30;77.40;;;;;;4973097;28;20031;-89
2020/12/15 13:01:22;;;;;;;3.72;1.05;;;28.40;77.10;;;;;;4994583;28;20046;-90
2020/12/15 13:03:49;;;;;;;18.02;2.13;;;28.50;76.30;;;;;;4971212;28;20029;-88
2020/12/15 13:06:17;;;;;;;2.45;0.90;;;28.60;76.00;;;;;;4971234;28;20031;-90
2020/12/15 13:08:44;;;;;;;5.53;0.82;;;28.70;75.60;;;;;;4971228;28;20102;-88
2020/12/15 13:11:10;;;;;;;5.25;0.80;;;28.90;76.00;;;;;;4973011;28;20030;-89
2020/12/15 13:13:38;;;;;;;1.58;0.77;;;29.10;74.50;;;;;;4969884;28;20023;-88
2020/12/15 13:16:05;;;;;;;5.53;0.90;;;29.20;74.70;;;;;;4969066;28;20026;-89
2020/12/15 13:18:42;;;;;;;4.13;0.95;;;29.30;73.60;;;;;;4973802;28;20026;-92
2020/12/15 13:21:16;;;;;;;4.43;0.77;;;29.30;73.30;;;;;;4972685;28;20137;-92
2020/12/15 13:23:44;;;;;;;2.75;0.65;;;29.30;73.50;;;;;;4970985;28;20089;-94
2020/12/15 13:26:22;;;;;;;2.85;0.70;;;29.30;73.40;;;;;;4970377;28;20031;-93
2020/12/15 13:28:52;;;;;;;2.38;0.82;;;29.40;72.80;;;;;;4972151;28;20027;-92
2020/12/15 13:31:18;;;;;;;12.93;1.30;;;29.50;72.90;;;;;;4971043;28;20022;-91
2020/12/15 13:34:31;;;;;;;7.90;1.27;;;29.70;72.30;;;;;;4971619;28;20338;-92
2020/12/15 13:36:57;;;;;;;1.85;0.90;;;30.00;71.20;;;;;;4941317;29;20369;-90
2020/12/15 13:39:24;;;;;;;1.30;0.70;;;29.90;71.00;;;;;;4935200;29;20103;-91
2020/12/15 13:41:52;;;;;;;4.03;0.80;;;30.10;70.40;;;;;;4932324;29;20044;-90
2020/12/15 13:44:19;;;;;;;4.88;0.68;;;30.10;71.30;;;;;;4935329;29;20036;-90
2020/12/15 13:46:53;;;;;;;2.90;0.60;;;30.10;71.20;;;;;;4934852;29;20028;-91
2020/12/15 13:49:21;;;;;;;23.83;3.92;;;30.30;70.90;;;;;;4933584;29;20032;-92